Pagrindinis puslapis
METAR-TAF:

METAR-TAF

Oro uostai :

Geilenkirchen, Vokietija

platuma: 50-57-39N, ilguma: 006-2-33E, Aukštis: 90 m

METAR: trūkstamas

Laikas: 01:20 (00:20 UTC)

Prognozė

Ataskaita buvo paskelbta 10 valandos ir 20 minutes, ne 14:00 UTC
Prognozė galioja nuo 27 metu 15 UTC su 28 metu 06 UTC
Vėjas 8 kt iš Šiaurės Rytų
Matomumas 10 km arba daugiau
nėra debesų žemiau 1500 m ir nėra kamuolinių lietaus debesų
Tapsmas
nuo 27 metu 20 UTC su 27 metu 22 UTC
Vėjas 3 kt nuo kintamojo kryptimis

TAF: ETNG 271400Z 2715/2806 05008KT CAVOK BECMG 2720/2722 VRB03KT

Orai ataskaitas ir orų prognozės (METAR, TAF).

turimą stotys yra geltonos ir raudonos taškus žemėlapyje.

Perkelti pele per norėdami pamatyti stoties vardą.

Tada spustelėkite, norėdami matyti oro stebėjimo ir prognozės.

Norėdami pakeisti žemėlapį: spustelėkite ant žalios mygtukų su juodo kryžiaus žemyn,; žalią mygtuką su brūkšneliu, jei norite nutolinti; arba žalių rodyklių gretimoms žemėlapius.


METAR-TAF: